Masuei Maru No41 — JD2285 — position and weather

sailwx.info

Track history (hours):
 
Tides and Currents Weather Stations Pressure Air Temp Water Temp Dewpoint Dewpoint Depression Visibility Wind Speed Wind Dir Waves Ship Positions

Masuei Maru No41

Last reported at 2017-Nov-18 02:11 UTC. Time now 2017-Nov-18 04:45 UTC.
Position N 34°13' E 135°07'.

Length 32 m.

Type: Tug. MMSI: 431301814.

Date/timePositionNaut miles runAvg speedWind from/ knotsBaromVisibWave heightAir tempDewpointWater temp
2017-Nov-18 02:11N 34°13' E 135°07'1 7.8
2017-Nov-18 02:01N 34°13' E 135°09'0 0.0
2017-Nov-17 07:50N 34°13' E 135°09'0 0.0
2017-Nov-17 07:30N 34°13' E 135°09'1 0.2
2017-Nov-16 23:10N 34°13' E 135°07'1 8.4
2017-Nov-16 23:00N 34°13' E 135°09'0 0.0
2017-Nov-16 11:24N 34°13' E 135°09'3 7.4
2017-Nov-16 11:00N 34°14' E 135°06'1 2.6
2017-Nov-16 10:30N 34°14' E 135°07'2 3.3
2017-Nov-16 10:00N 34°13' E 135°09'0 0.0
2017-Nov-15 22:56N 34°13' E 135°09'1 1.8
2017-Nov-15 22:22N 34°12' E 135°09'0 0.5
2017-Nov-15 21:57N 34°12' E 135°08'0 0.7
2017-Nov-15 21:29N 34°13' E 135°08'1 1.7
2017-Nov-15 21:00N 34°13' E 135°09'0 0.0
2017-Nov-14 02:56N 34°13' E 135°09'3 5.5
2017-Nov-14 02:27N 34°14' E 135°06'1 2.7
2017-Nov-14 01:57N 34°14' E 135°08'1 2.2
2017-Nov-14 01:29N 34°14' E 135°06'1 2.2
2017-Nov-14 00:58N 34°14' E 135°05'1 1.4
2017-Nov-14 00:31N 34°13' E 135°06'2 4.2
2017-Nov-13 23:59N 34°13' E 135°09'0 0.0
2017-Nov-13 23:29N 34°13' E 135°09'0 0.0
2017-Nov-13 22:59N 34°13' E 135°09'0 0.0
2017-Nov-13 22:28N 34°13' E 135°09'1 0.0
2017-Nov-11 22:10N 34°13' E 135°07'1 6.9
2017-Nov-11 21:58N 34°13' E 135°09'0 0.0
2017-Nov-11 21:28N 34°13' E 135°09'0 0.0
2017-Nov-11 02:27N 34°13' E 135°09'0 0.2
2017-Nov-11 02:00N 34°13' E 135°09'1 1.5
2017-Nov-11 01:26N 34°12' E 135°09'1 2.1
2017-Nov-11 01:00N 34°13' E 135°09'0 0.0
2017-Nov-11 00:30N 34°13' E 135°09'0 0.0
2017-Nov-11 00:00N 34°13' E 135°09'3 5.2
2017-Nov-10 23:28N 34°12' E 135°06'3 5.5
2017-Nov-10 22:58N 34°13' E 135°09'1 1.6
2017-Nov-10 22:19N 34°12' E 135°08'1 3.6
2017-Nov-10 22:00N 34°13' E 135°07'1 2.5
2017-Nov-10 21:28N 34°13' E 135°09'1 0.1
2017-Nov-10 02:22N 34°13' E 135°08'4 9.1
2017-Nov-10 01:57N 34°09' E 135°06'4 0.2
2017-Nov-09 04:29N 34°13' E 135°08'1 2.1
2017-Nov-09 03:58N 34°13' E 135°09'0 0.0
2017-Nov-09 03:28N 34°13' E 135°09'0 0.0
2017-Nov-09 02:58N 34°13' E 135°09'0 0.0
2017-Nov-09 02:28N 34°13' E 135°09'0 0.0
2017-Nov-09 01:58N 34°13' E 135°09'0 0.0
2017-Nov-09 01:28N 34°13' E 135°09'0 0.0
2017-Nov-09 00:58N 34°13' E 135°09'0 0.0
2017-Nov-09 00:28N 34°13' E 135°09'0 0.0
2017-Nov-08 23:58N 34°13' E 135°09'0 0.0
2017-Nov-08 23:28N 34°13' E 135°09'0 0.0
2017-Nov-08 22:58N 34°13' E 135°09'0 0.0
2017-Nov-08 22:28N 34°13' E 135°09'0 0.0
2017-Nov-08 21:58N 34°13' E 135°09'0 0.0
2017-Nov-08 21:28N 34°13' E 135°09'0 0.0
2017-Nov-08 20:58N 34°13' E 135°09'0 0.0
2017-Nov-08 20:28N 34°13' E 135°09'0 0.0
2017-Nov-08 19:58N 34°13' E 135°09'0 0.0
2017-Nov-08 19:28N 34°13' E 135°09'0 0.0
2017-Nov-08 18:58N 34°13' E 135°09'0 0.0
2017-Nov-08 18:28N 34°13' E 135°09'0 0.0
2017-Nov-08 17:58N 34°13' E 135°09'0 0.0
2017-Nov-08 17:28N 34°13' E 135°09'0 0.0
2017-Nov-08 16:58N 34°13' E 135°09'0 0.0
2017-Nov-08 16:28N 34°13' E 135°09'0 0.0
2017-Nov-08 15:58N 34°13' E 135°09'0 0.0
2017-Nov-08 15:28N 34°13' E 135°09'0 0.0
2017-Nov-08 14:58N 34°13' E 135°09'0 0.0
2017-Nov-08 14:28N 34°13' E 135°09'0 0.0
2017-Nov-08 13:58N 34°13' E 135°09'0 0.0
2017-Nov-08 13:28N 34°13' E 135°09'0 0.0
2017-Nov-08 12:58N 34°13' E 135°09'0 0.1
2017-Nov-08 12:30N 34°13' E 135°09'1 1.3
2017-Nov-08 11:23N 34°14' E 135°08'1 2.6
2017-Nov-08 11:00N 34°14' E 135°06'1 1.0
2017-Nov-08 10:05N 34°14' E 135°05'1 8.0
2017-Nov-08 10:00N 34°14' E 135°06'2 4.9
2017-Nov-08 09:30N 34°13' E 135°09'0 0.0
2017-Nov-08 09:00N 34°13' E 135°09'0 0.0
2017-Nov-08 08:30N 34°13' E 135°09'0 0.0
2017-Nov-08 08:00N 34°13' E 135°09'0 0.0
2017-Nov-08 07:30N 34°13' E 135°09'0 0.0
2017-Nov-08 07:00N 34°13' E 135°09'  
Track history (hours):
 
Tides and Currents Weather Stations Pressure Air Temp Water Temp Dewpoint Dewpoint Depression Visibility Wind Speed Wind Dir Waves Ship Positions

Masuei Maru No41

Last reported at 2017-Nov-18 02:11 UTC. Time now 2017-Nov-18 04:45 UTC.
Position N 34°13' E 135°07'.

Length 32 m.

Type: Tug. MMSI: 431301814.

Date/timePositionNaut miles runAvg speedWind from/ knotsBaromVisibWave heightAir tempDewpointWater temp
2017-Nov-18 02:11N 34°13' E 135°07'1 7.8
2017-Nov-18 02:01N 34°13' E 135°09'0 0.0
2017-Nov-17 07:50N 34°13' E 135°09'0 0.0
2017-Nov-17 07:30N 34°13' E 135°09'1 0.2
2017-Nov-16 23:10N 34°13' E 135°07'1 8.4
2017-Nov-16 23:00N 34°13' E 135°09'0 0.0
2017-Nov-16 11:24N 34°13' E 135°09'3 7.4
2017-Nov-16 11:00N 34°14' E 135°06'1 2.6
2017-Nov-16 10:30N 34°14' E 135°07'2 3.3
2017-Nov-16 10:00N 34°13' E 135°09'0 0.0
2017-Nov-15 22:56N 34°13' E 135°09'1 1.8
2017-Nov-15 22:22N 34°12' E 135°09'0 0.5
2017-Nov-15 21:57N 34°12' E 135°08'0 0.7
2017-Nov-15 21:29N 34°13' E 135°08'1 1.7
2017-Nov-15 21:00N 34°13' E 135°09'0 0.0
2017-Nov-14 02:56N 34°13' E 135°09'3 5.5
2017-Nov-14 02:27N 34°14' E 135°06'1 2.7
2017-Nov-14 01:57N 34°14' E 135°08'1 2.2
2017-Nov-14 01:29N 34°14' E 135°06'1 2.2
2017-Nov-14 00:58N 34°14' E 135°05'1 1.4
2017-Nov-14 00:31N 34°13' E 135°06'2 4.2
2017-Nov-13 23:59N 34°13' E 135°09'0 0.0
2017-Nov-13 23:29N 34°13' E 135°09'0 0.0
2017-Nov-13 22:59N 34°13' E 135°09'0 0.0
2017-Nov-13 22:28N 34°13' E 135°09'1 0.0
2017-Nov-11 22:10N 34°13' E 135°07'1 6.9
2017-Nov-11 21:58N 34°13' E 135°09'0 0.0
2017-Nov-11 21:28N 34°13' E 135°09'0 0.0
2017-Nov-11 02:27N 34°13' E 135°09'0 0.2
2017-Nov-11 02:00N 34°13' E 135°09'1 1.5
2017-Nov-11 01:26N 34°12' E 135°09'1 2.1
2017-Nov-11 01:00N 34°13' E 135°09'0 0.0
2017-Nov-11 00:30N 34°13' E 135°09'0 0.0
2017-Nov-11 00:00N 34°13' E 135°09'3 5.2
2017-Nov-10 23:28N 34°12' E 135°06'3 5.5
2017-Nov-10 22:58N 34°13' E 135°09'1 1.6
2017-Nov-10 22:19N 34°12' E 135°08'1 3.6
2017-Nov-10 22:00N 34°13' E 135°07'1 2.5
2017-Nov-10 21:28N 34°13' E 135°09'1 0.1
2017-Nov-10 02:22N 34°13' E 135°08'4 9.1
2017-Nov-10 01:57N 34°09' E 135°06'4 0.2
2017-Nov-09 04:29N 34°13' E 135°08'1 2.1
2017-Nov-09 03:58N 34°13' E 135°09'0 0.0
2017-Nov-09 03:28N 34°13' E 135°09'0 0.0
2017-Nov-09 02:58N 34°13' E 135°09'0 0.0
2017-Nov-09 02:28N 34°13' E 135°09'0 0.0
2017-Nov-09 01:58N 34°13' E 135°09'0 0.0
2017-Nov-09 01:28N 34°13' E 135°09'0 0.0
2017-Nov-09 00:58N 34°13' E 135°09'0 0.0
2017-Nov-09 00:28N 34°13' E 135°09'0 0.0
2017-Nov-08 23:58N 34°13' E 135°09'0 0.0
2017-Nov-08 23:28N 34°13' E 135°09'0 0.0
2017-Nov-08 22:58N 34°13' E 135°09'0 0.0
2017-Nov-08 22:28N 34°13' E 135°09'0 0.0
2017-Nov-08 21:58N 34°13' E 135°09'0 0.0
2017-Nov-08 21:28N 34°13' E 135°09'0 0.0
2017-Nov-08 20:58N 34°13' E 135°09'0 0.0
2017-Nov-08 20:28N 34°13' E 135°09'0 0.0
2017-Nov-08 19:58N 34°13' E 135°09'0 0.0
2017-Nov-08 19:28N 34°13' E 135°09'0 0.0
2017-Nov-08 18:58N 34°13' E 135°09'0 0.0
2017-Nov-08 18:28N 34°13' E 135°09'0 0.0
2017-Nov-08 17:58N 34°13' E 135°09'0 0.0
2017-Nov-08 17:28N 34°13' E 135°09'0 0.0
2017-Nov-08 16:58N 34°13' E 135°09'0 0.0
2017-Nov-08 16:28N 34°13' E 135°09'0 0.0
2017-Nov-08 15:58N 34°13' E 135°09'0 0.0
2017-Nov-08 15:28N 34°13' E 135°09'0 0.0
2017-Nov-08 14:58N 34°13' E 135°09'0 0.0
2017-Nov-08 14:28N 34°13' E 135°09'0 0.0
2017-Nov-08 13:58N 34°13' E 135°09'0 0.0
2017-Nov-08 13:28N 34°13' E 135°09'0 0.0
2017-Nov-08 12:58N 34°13' E 135°09'0 0.1
2017-Nov-08 12:30N 34°13' E 135°09'1 1.3
2017-Nov-08 11:23N 34°14' E 135°08'1 2.6
2017-Nov-08 11:00N 34°14' E 135°06'1 1.0
2017-Nov-08 10:05N 34°14' E 135°05'1 8.0
2017-Nov-08 10:00N 34°14' E 135°06'2 4.9
2017-Nov-08 09:30N 34°13' E 135°09'0 0.0
2017-Nov-08 09:00N 34°13' E 135°09'0 0.0
2017-Nov-08 08:30N 34°13' E 135°09'0 0.0
2017-Nov-08 08:00N 34°13' E 135°09'0 0.0
2017-Nov-08 07:30N 34°13' E 135°09'0 0.0
2017-Nov-08 07:00N 34°13' E 135°09'  

Dump ship's entire track history